53PN weather

S W Jack Heliport
Indiana, Pennsylvania, United States

Public forecast

Using degrees Fahrenheit for public forecast. Weather courtesy of forecast.io.

Closest aviation weather report (METAR) to S W Jack Heliport

Closest report is Indiana County/Jimmy Stewart Fld/ Airport, 0.4 nm (0.7 km) ENE. Retrieved 2020/03/29 17:15 UTC (0 seconds ago):

KIDI 291715Z AUTO 25014G30KT 220V280 10SM SCT044 SCT050 BKN055 23/15 A2972 RMK A01

Closest aviation forecast (TAF) to S W Jack Heliport

Closest forecast is John Murtha Johnstown Cambria County Airport, 22.8 nm (42.2 km) SE. Retrieved 2020/03/29 12:40 UTC (5 hours ago):

TAF KJST 291137Z 2912/3012 17008KT P6SM OVC100 TEMPO 2912/2913 P6SM -RA OVC050 FM292000 25018G26KT P6SM BKN250